Time;durP1;ratioP1;P1;durP2;ratioP2;P2;SDS_P1;SDS_P2;PMS_P1;PMS_P2;Temp;Humidity;BMP_temperature;BMP_pressure;BME280_temperature;BME280_humidity;BME280_pressure;Samples;Min_cycle;Max_cycle;Signal;HPM_P1;HPM_P2
2022/11/18 00:01:15;;;;;;;8.18;4.63;;;;;;;7.76;94.72;99378.38;5111660;28;20024;-62
2022/11/18 00:03:41;;;;;;;7.80;4.70;;;;;;;7.77;94.89;99373.00;5103120;28;20123;-62
2022/11/18 00:06:12;;;;;;;8.02;4.47;;;;;;;7.79;94.73;99372.88;5091288;28;20036;-62
2022/11/18 00:08:38;;;;;;;9.20;4.15;;;;;;;7.73;94.86;99376.81;5095019;28;20036;-62
2022/11/18 00:11:10;;;;;;;9.95;4.68;;;;;;;7.69;95.12;99378.84;5076245;28;20109;-62
2022/11/18 00:16:24;;;;;;;7.90;5.10;;;;;;;7.69;95.28;99378.84;5093756;28;20058;-61
2022/11/18 00:18:51;;;;;;;11.57;5.03;;;;;;;7.69;95.33;99378.84;5111805;28;20031;-62
2022/11/18 00:21:17;;;;;;;5.95;4.30;;;;;;;7.69;95.68;99375.38;5094985;28;20426;-62
2022/11/18 00:23:42;;;;;;;6.90;4.40;;;;;;;7.69;95.81;99372.72;5097159;28;20035;-61
2022/11/18 00:26:11;;;;;;;9.30;5.00;;;;;;;7.69;95.20;99388.59;5091803;28;20039;-62
2022/11/18 00:28:36;;;;;;;8.93;4.55;;;;;;;7.67;95.85;99385.22;5092557;28;20032;-61
2022/11/18 00:31:04;;;;;;;8.95;4.63;;;;;;;7.72;95.73;99388.38;5080753;28;20107;-62
2022/11/18 00:33:30;;;;;;;8.98;4.65;;;;;;;7.72;95.86;99397.16;5092290;28;20027;-62
2022/11/18 00:35:56;;;;;;;8.23;4.78;;;;;;;7.70;95.79;99393.75;5088568;28;20506;-62
2022/11/18 00:38:22;;;;;;;7.43;5.05;;;;;;;7.66;96.17;99391.47;5094443;28;20028;-62
2022/11/18 00:40:48;;;;;;;8.43;5.03;;;;;;;7.74;95.83;99397.88;5087687;28;20036;-62
2022/11/18 00:43:13;;;;;;;6.00;4.53;;;;;;;7.71;96.00;99400.75;5076867;28;20391;-61
2022/11/18 00:45:39;;;;;;;11.52;5.22;;;;;;;7.77;96.50;99406.56;5097630;28;20062;-61
2022/11/18 00:48:06;;;;;;;9.88;4.63;;;;;;;7.73;96.07;99419.16;5108940;27;20032;-62
2022/11/18 00:50:32;;;;;;;10.10;4.60;;;;;;;7.78;96.02;99413.53;5081816;28;20028;-62
2022/11/18 00:52:59;;;;;;;10.00;4.80;;;;;;;7.72;95.96;99410.38;5101121;28;20470;-62
2022/11/18 00:55:25;;;;;;;5.30;4.18;;;;;;;7.75;95.69;99422.53;5095249;27;20041;-65
2022/11/18 00:57:52;;;;;;;7.43;4.80;;;;;;;7.79;95.88;99417.84;5087937;28;20037;-62
2022/11/18 01:00:18;;;;;;;7.43;5.22;;;;;;;7.83;95.76;99422.81;5096806;28;20085;-61
2022/11/18 01:02:44;;;;;;;11.45;5.25;;;;;;;7.82;96.09;99428.22;5094541;28;20038;-62
2022/11/18 01:05:09;;;;;;;7.97;4.15;;;;;;;7.81;96.00;99422.06;5101566;28;20034;-62
2022/11/18 01:07:37;;;;;;;7.85;4.72;;;;;;;7.84;96.04;99429.78;5091734;28;20043;-61
2022/11/18 01:10:05;;;;;;;7.60;4.88;;;;;;;7.85;95.89;99435.91;5071780;28;20487;-61
2022/11/18 01:15:14;;;;;;;8.13;4.32;;;;;;;7.90;95.69;99439.91;5088510;28;20548;-61
2022/11/18 01:17:42;;;;;;;8.05;4.45;;;;;;;7.93;95.97;99444.16;5092625;28;20040;-62
2022/11/18 01:20:11;;;;;;;6.68;4.85;;;;;;;7.95;95.69;99447.53;5096780;28;20099;-62
2022/11/18 01:22:36;;;;;;;8.00;4.38;;;;;;;7.96;95.60;99451.84;5092171;28;20187;-61
2022/11/18 01:25:01;;;;;;;7.60;4.60;;;;;;;7.95;95.78;99461.59;5085169;28;20119;-61
2022/11/18 01:27:30;;;;;;;8.23;4.78;;;;;;;7.99;95.92;99461.38;5108388;27;20038;-62
2022/11/18 01:29:56;;;;;;;7.82;4.63;;;;;;;8.01;95.84;99455.00;5093315;28;20047;-61
2022/11/18 01:32:27;;;;;;;8.43;4.32;;;;;;;8.03;96.08;99461.03;5084536;28;20475;-61
2022/11/18 01:34:55;;;;;;;10.57;4.93;;;;;;;8.06;95.98;99468.75;5073474;28;20475;-61
2022/11/18 01:37:21;;;;;;;5.20;4.47;;;;;;;8.05;95.94;99476.81;5087819;28;20048;-61
2022/11/18 01:39:46;;;;;;;7.78;4.72;;;;;;;8.05;96.00;99475.00;5093257;28;20322;-61
2022/11/18 01:42:15;;;;;;;12.30;4.68;;;;;;;8.05;95.94;99485.59;5081239;28;20039;-61
2022/11/18 01:44:56;;;;;;;8.25;3.80;;;;;;;8.07;96.10;99485.47;5083520;28;20036;-62
2022/11/18 01:47:24;;;;;;;5.65;4.47;;;;;;;8.02;96.05;99477.88;5088607;28;20042;-62
2022/11/18 01:49:50;;;;;;;7.85;4.07;;;;;;;8.07;95.95;99482.84;5126109;27;20398;-61
2022/11/18 01:52:16;;;;;;;7.47;4.22;;;;;;;8.10;96.35;99490.56;5078584;28;20098;-61
2022/11/18 01:54:47;;;;;;;8.48;4.20;;;;;;;8.08;96.29;99487.16;5087780;28;20490;-61
2022/11/18 01:57:17;;;;;;;7.28;4.63;;;;;;;8.07;96.52;99490.78;5124945;27;20112;-61
2022/11/18 01:59:47;;;;;;;7.78;4.57;;;;;;;8.09;96.72;99489.72;5092367;28;20020;-61
2022/11/18 02:02:14;;;;;;;6.55;4.22;;;;;;;8.09;96.57;99491.50;5096101;28;20024;-61
2022/11/18 02:04:43;;;;;;;8.80;4.25;;;;;;;8.10;96.36;99499.34;5091765;28;20487;-61
2022/11/18 02:07:10;;;;;;;8.75;5.13;;;;;;;8.11;96.50;99497.53;5092157;28;20441;-61
2022/11/18 02:09:37;;;;;;;8.63;4.47;;;;;;;8.12;96.45;99499.22;5093617;28;20110;-62
2022/11/18 02:12:03;;;;;;;8.32;4.22;;;;;;;8.08;96.92;99501.25;5079429;28;20052;-62
2022/11/18 02:14:36;;;;;;;6.28;4.32;;;;;;;8.17;97.00;99503.19;5073079;28;20063;-62
2022/11/18 02:17:24;;;;;;;9.10;4.53;;;;;;;8.20;96.80;99510.06;5088460;28;20059;-61
2022/11/18 02:20:08;;;;;;;7.90;3.72;;;;;;;8.20;97.07;99516.22;5094078;28;20107;-61
2022/11/18 02:22:51;;;;;;;10.15;4.50;;;;;;;8.22;96.75;99510.81;5088502;28;20424;-61
2022/11/18 02:25:23;;;;;;;6.60;3.88;;;;;;;8.23;97.00;99512.50;5091130;28;20040;-62
2022/11/18 02:28:27;;;;;;;8.02;4.45;;;;;;;8.28;96.88;99520.09;5089452;28;20111;-62
2022/11/18 02:31:01;;;;;;;10.25;4.28;;;;;;;8.27;96.39;99519.28;5069865;28;20124;-62
2022/11/18 02:34:02;;;;;;;8.63;4.32;;;;;;;8.27;96.72;99524.56;5105067;28;20041;-61
2022/11/18 02:36:36;;;;;;;7.72;4.22;;;;;;;8.28;96.53;99528.06;5079999;28;20122;-62
2022/11/18 02:39:07;;;;;;;9.23;4.28;;;;;;;8.27;96.51;99523.72;5124626;27;20035;-61
2022/11/18 02:41:35;;;;;;;6.60;4.10;;;;;;;8.24;96.99;99510.72;5074184;28;20024;-62
2022/11/18 02:44:21;;;;;;;7.68;4.18;;;;;;;8.30;96.83;99529.63;5092202;28;20020;-61
2022/11/18 02:46:53;;;;;;;8.52;4.32;;;;;;;8.31;96.56;99535.78;5127667;27;21377;-61
2022/11/18 02:49:28;;;;;;;7.85;4.32;;;;;;;8.31;96.31;99539.25;5084721;28;20104;-62
2022/11/18 02:51:55;;;;;;;9.18;4.72;;;;;;;8.29;96.65;99535.88;5119023;27;20104;-61
2022/11/18 02:54:23;;;;;;;9.02;5.07;;;;;;;8.31;96.50;99547.19;5091540;28;20132;-62
2022/11/18 02:56:51;;;;;;;9.07;4.85;;;;;;;8.31;96.73;99549.00;5088114;28;20090;-61
2022/11/18 02:59:18;;;;;;;6.47;4.90;;;;;;;8.31;96.40;99536.59;5090967;28;20092;-61
2022/11/18 03:01:43;;;;;;;10.13;4.72;;;;;;;8.32;96.68;99548.03;5120339;27;20060;-61
2022/11/18 03:04:09;;;;;;;7.88;4.55;;;;;;;8.35;96.47;99548.69;5093732;28;20490;-61
2022/11/18 03:06:40;;;;;;;11.57;5.32;;;;;;;8.35;96.71;99555.75;5090586;28;20077;-61
2022/11/18 03:09:20;;;;;;;8.75;4.55;;;;;;;8.35;96.62;99556.63;5088316;28;20115;-61
2022/11/18 03:11:55;;;;;;;8.98;5.07;;;;;;;8.36;96.85;99554.81;5080249;28;20490;-61
2022/11/18 03:14:36;;;;;;;6.65;4.72;;;;;;;8.37;96.87;99557.34;5090487;28;20497;-61
2022/11/18 03:17:09;;;;;;;5.15;4.30;;;;;;;8.36;96.64;99560.97;5089327;28;20047;-61
2022/11/18 03:20:01;;;;;;;9.52;5.05;;;;;;;8.34;97.13;99560.22;5094169;28;20107;-61
2022/11/18 03:23:08;;;;;;;9.02;4.40;;;;;;;8.31;97.12;99557.78;5092850;28;20059;-61
2022/11/18 03:25:40;;;;;;;6.65;4.35;;;;;;;8.34;97.20;99568.16;5073066;28;20056;-61
2022/11/18 03:28:16;;;;;;;8.80;4.40;;;;;;;8.35;97.31;99567.22;5077189;28;20028;-61
2022/11/18 03:30:49;;;;;;;6.70;4.43;;;;;;;8.31;97.66;99575.50;5094724;28;20111;-61
2022/11/18 03:33:20;;;;;;;8.95;4.70;;;;;;;8.28;97.63;99573.09;5091005;28;20028;-61
2022/11/18 03:35:51;;;;;;;8.38;4.60;;;;;;;8.31;97.56;99581.63;5090920;28;20042;-61
2022/11/18 03:38:25;;;;;;;9.48;4.38;;;;;;;8.29;97.90;99580.91;5081738;28;20125;-61
2022/11/18 03:40:57;;;;;;;7.85;4.57;;;;;;;8.27;97.28;99582.00;5074272;28;20036;-61
2022/11/18 03:43:30;;;;;;;8.07;4.95;;;;;;;8.33;98.03;99595.63;5088050;28;20028;-62
2022/11/18 03:46:18;;;;;;;10.80;4.75;;;;;;;8.35;97.88;99587.56;5087602;28;20028;-61
2022/11/18 03:48:50;;;;;;;9.48;4.93;;;;;;;8.31;97.76;99600.19;5075512;28;20372;-62
2022/11/18 03:51:25;;;;;;;7.28;4.35;;;;;;;8.30;97.92;99603.81;5080291;28;20434;-62
2022/11/18 03:53:59;;;;;;;6.88;3.97;;;;;;;8.28;98.04;99607.50;5103772;27;20085;-61
2022/11/18 03:56:34;;;;;;;9.05;4.55;;;;;;;8.31;97.75;99609.94;5094175;28;20032;-61
2022/11/18 03:59:23;;;;;;;7.22;4.55;;;;;;;8.29;97.83;99611.84;5075082;28;20024;-62
2022/11/18 04:01:51;;;;;;;9.23;4.47;;;;;;;8.27;97.89;99611.97;5087723;28;20554;-62
2022/11/18 04:04:17;;;;;;;9.30;4.70;;;;;;;8.20;97.98;99611.56;5078191;28;20079;-62
2022/11/18 04:06:49;;;;;;;8.07;4.55;;;;;;;8.23;98.24;99620.25;5076237;28;20715;-61
2022/11/18 04:09:41;;;;;;;10.57;4.53;;;;;;;8.23;98.02;99630.84;5094740;28;20036;-61
2022/11/18 04:12:12;;;;;;;9.93;4.75;;;;;;;8.21;98.20;99644.22;5081812;28;20071;-61
2022/11/18 04:14:42;;;;;;;8.93;4.97;;;;;;;8.14;98.09;99641.13;5075265;28;20037;-62
2022/11/18 04:17:11;;;;;;;7.15;4.47;;;;;;;8.13;98.13;99647.41;5097089;28;20028;-62
2022/11/18 04:19:39;;;;;;;7.43;4.93;;;;;;;8.12;98.68;99639.59;5099533;28;20020;-61
2022/11/18 04:22:06;;;;;;;10.93;5.40;;;;;;;8.05;98.65;99631.22;5094597;28;20020;-61
2022/11/18 04:24:35;;;;;;;12.00;5.40;;;;;;;8.03;98.65;99638.44;5093446;28;20028;-61
2022/11/18 04:27:01;;;;;;;7.63;4.72;;;;;;;7.99;98.49;99641.41;5081972;28;20122;-62
2022/11/18 04:29:27;;;;;;;9.43;5.10;;;;;;;7.99;98.57;99644.91;5089041;28;20020;-62
2022/11/18 04:31:55;;;;;;;7.63;4.82;;;;;;;7.95;98.60;99644.28;5080995;28;20032;-61
2022/11/18 04:34:21;;;;;;;7.82;4.70;;;;;;;7.95;98.64;99657.50;5094419;28;20581;-61
2022/11/18 04:36:46;;;;;;;7.90;5.05;;;;;;;7.88;98.34;99652.75;5094906;28;20075;-61
2022/11/18 04:39:12;;;;;;;10.38;5.00;;;;;;;7.87;98.62;99664.31;5095413;28;20036;-61
2022/11/18 04:41:55;;;;;;;9.05;5.63;;;;;;;7.77;98.65;99656.19;5092337;28;20024;-61
2022/11/18 04:44:25;;;;;;;12.60;5.85;;;;;;;7.83;98.65;99661.03;5093599;28;20032;-61
2022/11/18 04:46:51;;;;;;;10.73;6.07;;;;;;;7.80;98.92;99669.19;5122160;27;20166;-62
2022/11/18 04:49:17;;;;;;;12.10;6.22;;;;;;;7.75;98.56;99673.97;5094578;28;20024;-62
2022/11/18 04:51:43;;;;;;;13.32;6.43;;;;;;;7.69;98.96;99662.00;5097354;28;20023;-61
2022/11/18 04:54:08;;;;;;;11.07;6.25;;;;;;;7.70;98.58;99674.28;5093485;28;20540;-61
2022/11/18 04:56:34;;;;;;;12.73;6.55;;;;;;;7.67;98.80;99668.34;5093947;28;20031;-62
2022/11/18 04:59:01;;;;;;;11.15;6.07;;;;;;;7.60;98.66;99670.59;5093802;28;20413;-62
2022/11/18 05:01:27;;;;;;;9.88;5.90;;;;;;;7.63;98.92;99683.59;5092287;28;20068;-62
2022/11/18 05:03:53;;;;;;;12.55;5.97;;;;;;;7.63;99.05;99680.97;5080797;28;20445;-61
2022/11/18 05:06:19;;;;;;;10.05;6.47;;;;;;;7.61;98.92;99687.31;5067489;28;20024;-61
2022/11/18 05:08:44;;;;;;;10.27;5.97;;;;;;;7.55;99.01;99687.72;5095066;28;20067;-62
2022/11/18 05:13:56;;;;;;;10.38;6.40;;;;;;;7.46;98.89;99694.50;5093406;28;20118;-61
2022/11/18 05:16:21;;;;;;;8.75;5.88;;;;;;;7.46;99.26;99705.94;5093195;28;20486;-62
2022/11/18 05:18:47;;;;;;;10.77;7.22;;;;;;;7.45;99.60;99706.06;5097209;28;20055;-61
2022/11/18 05:21:14;;;;;;;11.10;6.65;;;;;;;7.45;99.38;99706.88;5092014;28;20024;-61
2022/11/18 05:23:40;;;;;;;11.75;6.60;;;;;;;7.39;99.58;99709.97;5094532;28;20060;-61
2022/11/18 05:26:06;;;;;;;15.25;6.40;;;;;;;7.40;99.45;99709.00;5098450;28;20442;-62
2022/11/18 05:28:33;;;;;;;9.60;6.70;;;;;;;7.37;99.55;99714.50;5105012;28;20036;-61
2022/11/18 05:30:58;;;;;;;8.88;6.78;;;;;;;7.33;99.67;99715.66;5093317;28;20024;-61
2022/11/18 05:33:24;;;;;;;11.32;6.45;;;;;;;7.34;99.75;99713.88;5092174;28;20059;-61
2022/11/18 05:35:49;;;;;;;10.73;7.15;;;;;;;7.35;99.51;99715.56;5092881;28;20089;-62
2022/11/18 05:38:14;;;;;;;13.70;6.72;;;;;;;7.33;99.66;99717.47;5085435;28;20039;-61
2022/11/18 05:40:46;;;;;;;13.45;7.05;;;;;;;7.26;99.62;99725.81;5071439;28;20441;-61
2022/11/18 05:43:11;;;;;;;13.25;7.05;;;;;;;7.25;99.75;99723.25;5074376;28;20414;-61
2022/11/18 05:45:42;;;;;;;12.35;7.18;;;;;;;7.22;99.91;99726.13;5082968;28;20031;-61
2022/11/18 05:48:08;;;;;;;11.77;7.55;;;;;;;7.12;99.54;99727.66;5092667;28;20390;-62
2022/11/18 05:50:37;;;;;;;10.13;6.70;;;;;;;7.18;100.00;99737.88;5081024;28;20025;-61
2022/11/18 05:53:03;;;;;;;11.18;7.00;;;;;;;7.17;99.88;99742.28;5089709;28;20024;-61
2022/11/18 05:55:41;;;;;;;11.98;6.93;;;;;;;7.14;100.00;99746.94;5086305;28;20056;-62
2022/11/18 05:58:06;;;;;;;9.95;7.25;;;;;;;7.06;100.00;99734.25;5090988;28;20103;-61
2022/11/18 06:00:32;;;;;;;11.38;6.80;;;;;;;7.12;100.00;99751.47;5070878;28;20131;-61
2022/11/18 06:02:58;;;;;;;12.68;7.25;;;;;;;7.12;100.00;99751.47;5095703;28;20039;-61
2022/11/18 06:05:28;;;;;;;14.35;7.18;;;;;;;7.08;100.00;99757.91;5091628;28;20030;-61
2022/11/18 06:07:59;;;;;;;9.98;6.53;;;;;;;7.05;100.00;99751.88;5091460;28;20031;-62
2022/11/18 06:10:31;;;;;;;7.57;6.68;;;;;;;7.03;100.00;99764.38;5086769;28;20483;-61
2022/11/18 06:13:02;;;;;;;10.55;7.05;;;;;;;7.05;100.00;99761.59;5072280;28;20040;-61
2022/11/18 06:15:32;;;;;;;9.45;6.57;;;;;;;7.00;100.00;99761.06;5077839;28;20032;-61
2022/11/18 06:18:10;;;;;;;10.60;6.88;;;;;;;7.02;100.00;99759.16;5091546;28;20032;-61
2022/11/18 06:20:38;;;;;;;11.57;7.70;;;;;;;6.99;100.00;99764.66;5091663;28;20027;-61
2022/11/18 06:23:04;;;;;;;10.90;7.13;;;;;;;6.97;100.00;99778.00;5098473;28;20038;-61
2022/11/18 06:25:29;;;;;;;13.15;7.32;;;;;;;6.98;100.00;99787.59;5095926;28;20036;-61
2022/11/18 06:27:58;;;;;;;10.68;6.93;;;;;;;6.96;100.00;99786.84;5094669;28;20110;-61
2022/11/18 06:30:23;;;;;;;12.48;6.80;;;;;;;6.94;100.00;99796.69;5135498;27;20023;-61
2022/11/18 06:32:49;;;;;;;12.75;7.55;;;;;;;6.88;100.00;99794.41;5095754;28;20089;-61
2022/11/18 06:35:14;;;;;;;10.55;6.97;;;;;;;6.98;100.00;99800.81;5073779;28;20100;-61
2022/11/18 06:37:40;;;;;;;10.85;7.15;;;;;;;6.94;100.00;99801.09;5091210;28;20040;-61
2022/11/18 06:40:08;;;;;;;10.23;6.95;;;;;;;6.92;100.00;99810.97;5090315;28;20028;-61
2022/11/18 06:45:19;;;;;;;9.05;7.43;;;;;;;6.88;100.00;99805.00;5091506;28;20054;-61
2022/11/18 06:47:44;;;;;;;11.80;7.57;;;;;;;6.83;100.00;99812.41;5091043;28;20414;-61
2022/11/18 06:50:10;;;;;;;12.52;7.82;;;;;;;6.84;100.00;99816.72;5088079;28;20036;-61
2022/11/18 06:52:35;;;;;;;12.40;7.82;;;;;;;6.81;100.00;99820.41;5089186;28;20371;-61
2022/11/18 06:55:01;;;;;;;12.70;7.90;;;;;;;6.88;100.00;99820.84;5091543;28;20039;-61
2022/11/18 06:57:26;;;;;;;10.73;7.43;;;;;;;6.81;100.00;99828.34;5089134;28;20033;-61
2022/11/18 06:59:51;;;;;;;11.02;7.88;;;;;;;6.82;100.00;99837.97;5078019;28;20421;-61
2022/11/18 07:02:17;;;;;;;9.10;7.90;;;;;;;6.77;100.00;99826.84;5091583;28;20028;-61
2022/11/18 07:04:44;;;;;;;11.95;7.25;;;;;;;6.78;100.00;99833.81;5091284;28;20061;-61
2022/11/18 07:07:13;;;;;;;11.27;7.30;;;;;;;6.82;100.00;99850.31;5090892;28;20039;-61
2022/11/18 07:09:38;;;;;;;11.10;7.47;;;;;;;6.76;100.00;99848.06;5078957;28;20048;-61
2022/11/18 07:12:07;;;;;;;11.65;7.55;;;;;;;6.74;100.00;99852.63;5077943;28;20044;-61
2022/11/18 07:14:32;;;;;;;10.32;7.22;;;;;;;6.76;100.00;99846.28;5094868;28;20111;-61
2022/11/18 07:16:58;;;;;;;10.95;7.65;;;;;;;6.71;100.00;99852.81;5082071;28;20123;-61
2022/11/18 07:19:23;;;;;;;15.73;8.02;;;;;;;6.68;100.00;99853.00;5110494;28;20020;-61
2022/11/18 07:21:49;;;;;;;12.27;7.68;;;;;;;6.69;100.00;99862.63;5090112;28;20035;-62
2022/11/18 07:24:14;;;;;;;12.18;7.15;;;;;;;6.67;100.00;99867.16;5091824;28;20028;-62
2022/11/18 07:26:41;;;;;;;9.20;7.43;;;;;;;6.68;100.00;99869.72;5091160;28;20024;-61
2022/11/18 07:29:07;;;;;;;14.07;7.82;;;;;;;6.60;100.00;99871.97;5092661;28;20077;-63
2022/11/18 07:31:36;;;;;;;10.80;6.85;;;;;;;6.62;100.00;99871.84;5105811;28;20028;-62
2022/11/18 07:34:04;;;;;;;10.80;7.55;;;;;;;6.60;100.00;99877.25;5094217;28;20024;-63
2022/11/18 07:36:29;;;;;;;9.90;7.05;;;;;;;6.61;100.00;99876.31;5070051;28;20496;-62
2022/11/18 07:38:58;;;;;;;12.23;8.05;;;;;;;6.58;100.00;99874.69;5071286;28;20067;-63
2022/11/18 07:41:28;;;;;;;11.93;7.43;;;;;;;6.67;100.00;99885.63;5075123;28;20026;-62
2022/11/18 07:43:55;;;;;;;10.80;7.70;;;;;;;6.61;100.00;99892.16;5091301;28;20032;-62
2022/11/18 07:46:33;;;;;;;11.38;7.20;;;;;;;6.67;100.00;99890.94;5089747;28;20019;-63
2022/11/18 07:49:01;;;;;;;8.82;7.20;;;;;;;6.65;100.00;99888.41;5090959;28;20122;-62
2022/11/18 07:51:29;;;;;;;12.05;8.52;;;;;;;6.68;100.00;99895.28;5091266;28;20024;-62
2022/11/18 07:53:58;;;;;;;13.40;7.70;;;;;;;6.71;100.00;99897.75;5091751;28;20055;-62
2022/11/18 07:56:24;;;;;;;9.60;7.50;;;;;;;6.71;100.00;99908.31;5091816;28;20028;-62
2022/11/18 07:58:54;;;;;;;9.90;7.60;;;;;;;6.73;100.00;99907.25;5097795;28;20028;-63
2022/11/18 08:01:23;;;;;;;12.80;7.03;;;;;;;6.72;100.00;99915.28;5094755;28;20020;-62
2022/11/18 08:03:50;;;;;;;9.60;8.25;;;;;;;6.68;100.00;99908.50;5091393;28;20036;-62
2022/11/18 08:06:19;;;;;;;10.43;7.75;;;;;;;6.73;100.00;99911.69;5099782;28;20121;-62
2022/11/18 08:08:45;;;;;;;11.98;7.55;;;;;;;6.79;100.00;99922.75;5095597;28;20053;-62
2022/11/18 08:11:19;;;;;;;9.63;7.43;;;;;;;6.81;100.00;99926.13;5091779;28;20042;-62
2022/11/18 08:13:47;;;;;;;11.90;7.82;;;;;;;6.83;100.00;99928.69;5090037;28;20032;-62
2022/11/18 08:16:21;;;;;;;12.52;7.35;;;;;;;6.84;100.00;99933.00;5086011;28;20114;-62
2022/11/18 08:18:47;;;;;;;11.02;7.53;;;;;;;6.87;100.00;99939.91;5094666;28;20036;-63
2022/11/18 08:21:14;;;;;;;10.13;8.23;;;;;;;6.91;99.86;99936.09;5093505;28;20046;-62
2022/11/18 08:23:39;;;;;;;13.80;7.70;;;;;;;6.89;100.00;99944.16;5092474;28;20455;-62
2022/11/18 08:26:12;;;;;;;10.70;8.25;;;;;;;6.93;100.00;99945.66;5090209;28;20032;-62
2022/11/18 08:28:38;;;;;;;10.45;8.27;;;;;;;6.94;99.73;99947.38;5094503;28;20062;-62
2022/11/18 08:31:12;;;;;;;10.75;7.70;;;;;;;6.93;99.70;99956.22;5095134;28;20063;-62
2022/11/18 08:33:38;;;;;;;12.25;7.60;;;;;;;6.96;99.57;99949.91;5093993;28;20036;-62
2022/11/18 08:36:08;;;;;;;9.32;7.97;;;;;;;6.97;99.50;99957.75;5100080;28;20461;-62
2022/11/18 08:38:34;;;;;;;11.57;8.50;;;;;;;7.03;99.42;99952.06;5089321;27;20013;-62
2022/11/18 08:41:00;;;;;;;11.30;8.30;;;;;;;7.12;99.34;99958.56;5083560;28;20034;-62
2022/11/18 08:43:25;;;;;;;10.35;7.97;;;;;;;7.14;98.97;99961.94;5092282;28;20063;-62
2022/11/18 08:45:52;;;;;;;13.38;7.30;;;;;;;7.19;98.99;99959.88;5099552;28;20396;-62
2022/11/18 08:48:18;;;;;;;9.82;7.82;;;;;;;7.23;98.21;99960.53;5092345;28;20028;-62
2022/11/18 08:50:43;;;;;;;12.13;8.48;;;;;;;7.28;98.20;99956.63;5093517;28;20115;-62
2022/11/18 08:53:11;;;;;;;14.73;8.38;;;;;;;7.36;98.22;99964.09;5092788;28;20487;-62
2022/11/18 08:55:36;;;;;;;12.13;8.40;;;;;;;7.37;98.03;99955.19;5094147;28;20093;-62
2022/11/18 08:58:04;;;;;;;12.60;8.40;;;;;;;7.49;97.98;99972.09;5092161;28;20028;-63
2022/11/18 09:00:29;;;;;;;11.98;7.95;;;;;;;7.55;98.09;99963.75;5075008;28;20085;-62
2022/11/18 09:02:55;;;;;;;11.88;8.20;;;;;;;7.60;97.63;99972.25;5093090;28;20048;-63
2022/11/18 09:05:20;;;;;;;12.20;8.07;;;;;;;7.61;97.37;99973.94;5093847;28;20105;-63
2022/11/18 09:07:46;;;;;;;12.27;8.20;;;;;;;7.68;96.73;99971.75;5093199;28;20047;-63
2022/11/18 09:10:11;;;;;;;13.80;8.25;;;;;;;7.75;96.77;99983.63;5093525;28;20432;-62
2022/11/18 09:12:37;;;;;;;17.17;7.93;;;;;;;7.79;96.99;99974.53;5091793;28;20055;-63
2022/11/18 09:15:03;;;;;;;12.38;7.70;;;;;;;7.88;96.67;99981.00;5094257;28;20070;-62
2022/11/18 09:17:31;;;;;;;13.43;7.18;;;;;;;7.93;96.13;99985.06;5105814;28;20043;-63
2022/11/18 09:19:56;;;;;;;11.82;7.50;;;;;;;7.98;95.85;99982.13;5096371;28;20540;-62
2022/11/18 09:22:22;;;;;;;13.60;8.15;;;;;;;8.06;94.99;99993.06;5113963;28;20023;-63
2022/11/18 09:24:47;;;;;;;11.98;7.63;;;;;;;8.10;95.49;99993.69;5095409;28;20059;-62
2022/11/18 09:27:13;;;;;;;12.70;6.97;;;;;;;8.14;95.29;99995.19;5092894;28;20031;-63
2022/11/18 09:29:39;;;;;;;9.77;7.00;;;;;;;8.19;94.83;99995.72;5075424;28;20020;-63
2022/11/18 09:32:04;;;;;;;12.40;7.30;;;;;;;8.26;94.62;100007.59;5093557;28;20503;-62
2022/11/18 09:34:29;;;;;;;11.38;7.03;;;;;;;8.36;94.31;100008.69;5094544;28;20024;-62
2022/11/18 09:36:59;;;;;;;11.57;7.25;;;;;;;8.43;93.86;100005.66;5092113;28;20031;-62
2022/11/18 09:39:25;;;;;;;9.63;6.75;;;;;;;8.60;93.94;100018.63;5075686;28;20024;-63
2022/11/18 09:42:12;;;;;;;14.35;6.75;;;;;;;8.72;93.13;100027.53;5091659;28;20501;-63
2022/11/18 09:44:56;;;;;;;11.27;7.00;;;;;;;8.81;91.50;100019.78;5094312;28;20034;-62
2022/11/18 09:47:28;;;;;;;11.90;6.43;;;;;;;8.95;91.18;100033.91;5107309;28;20024;-63
2022/11/18 09:49:57;;;;;;;12.05;6.38;;;;;;;8.91;90.52;100037.69;5113873;28;20020;-63
2022/11/18 09:52:30;;;;;;;8.43;6.20;;;;;;;8.86;90.13;100036.22;5113639;28;20020;-63
2022/11/18 09:54:57;;;;;;;8.75;5.90;;;;;;;8.83;90.52;100047.06;5111821;28;20031;-63
2022/11/18 09:57:36;;;;;;;12.05;6.13;;;;;;;8.87;90.72;100059.13;5112598;28;20025;-63
2022/11/18 10:00:12;;;;;;;10.23;6.07;;;;;;;8.85;91.10;100062.84;5111948;28;20034;-63
2022/11/18 10:02:46;;;;;;;12.02;6.03;;;;;;;8.84;90.29;100063.81;5107405;28;20055;-63
2022/11/18 10:05:21;;;;;;;9.07;5.43;;;;;;;8.86;91.29;100062.75;5091585;28;20382;-63
2022/11/18 10:07:58;;;;;;;10.32;5.70;;;;;;;8.96;90.14;100062.09;5091406;28;20502;-63
2022/11/18 10:10:42;;;;;;;9.68;5.18;;;;;;;9.04;90.11;100057.97;5092796;28;20024;-63
2022/11/18 10:13:13;;;;;;;10.43;5.40;;;;;;;9.08;90.03;100061.25;5091999;28;20048;-63
2022/11/18 10:16:08;;;;;;;13.68;5.22;;;;;;;9.18;90.41;100059.69;5109630;28;20495;-63
2022/11/18 10:18:42;;;;;;;12.57;4.90;;;;;;;9.43;90.19;100064.09;5100851;28;20046;-63
2022/11/18 10:21:55;;;;;;;7.93;5.00;;;;;;;9.66;89.34;100070.41;5072280;28;20086;-63
2022/11/18 10:24:22;;;;;;;8.88;4.60;;;;;;;9.62;87.62;100066.28;5031326;28;20037;-63
2022/11/18 10:26:54;;;;;;;9.00;4.63;;;;;;;9.55;87.77;100076.47;5082099;28;20055;-63
2022/11/18 10:29:19;;;;;;;10.10;4.75;;;;;;;9.47;87.92;100073.53;5092739;28;20117;-63
2022/11/18 10:32:06;;;;;;;7.50;4.20;;;;;;;9.40;88.02;100066.13;5094683;28;20055;-63
2022/11/18 10:34:33;;;;;;;10.02;4.00;;;;;;;9.33;87.29;100078.97;5078102;28;20032;-63
2022/11/18 10:37:12;;;;;;;7.95;4.30;;;;;;;9.31;88.10;100073.75;5097686;28;20020;-63
2022/11/18 10:39:55;;;;;;;8.02;4.40;;;;;;;9.37;88.95;100069.00;5090120;28;20020;-65
2022/11/18 10:42:34;;;;;;;8.98;4.32;;;;;;;9.30;87.85;100069.41;5089980;28;20040;-63
2022/11/18 10:45:31;;;;;;;9.82;4.22;;;;;;;9.39;88.21;100085.66;5091682;28;20371;-64
2022/11/18 10:48:19;;;;;;;8.40;3.80;;;;;;;9.35;87.65;100090.31;5060054;28;20043;-64
2022/11/18 10:50:49;;;;;;;10.27;4.00;;;;;;;9.32;88.28;100094.06;5103497;28;20044;-64
2022/11/18 10:53:38;;;;;;;8.57;4.45;;;;;;;9.30;87.72;100079.19;5094752;28;20024;-64
2022/11/18 10:56:10;;;;;;;14.45;4.55;;;;;;;9.29;87.88;100091.63;5090592;28;20036;-64
2022/11/18 10:58:45;;;;;;;11.73;4.78;;;;;;;9.35;88.71;100090.31;5094416;28;20033;-64
2022/11/18 11:01:23;;;;;;;11.65;4.43;;;;;;;9.38;88.19;100095.41;5075549;28;20073;-64
2022/11/18 11:04:18;;;;;;;9.45;4.22;;;;;;;9.44;88.67;100096.78;5102748;28;20027;-64
2022/11/18 11:06:44;;;;;;;14.38;5.32;;;;;;;9.48;88.86;100099.13;5111054;27;20475;-64
2022/11/18 11:09:12;;;;;;;12.57;4.57;;;;;;;9.59;88.78;100094.84;5090877;28;20032;-64
2022/11/18 11:11:57;;;;;;;13.13;4.55;;;;;;;9.64;87.83;100108.66;5087289;28;20122;-64
2022/11/18 11:14:29;;;;;;;10.90;4.53;;;;;;;9.63;87.23;100107.81;5084317;28;20487;-64
2022/11/18 11:17:18;;;;;;;7.25;4.03;;;;;;;9.68;87.13;100111.00;5091997;28;20048;-64
2022/11/18 11:19:52;;;;;;;8.52;4.45;;;;;;;9.62;87.37;100106.13;5120020;27;20128;-64
2022/11/18 11:22:18;;;;;;;9.35;4.63;;;;;;;9.66;87.49;100104.09;5103353;28;20035;-64
2022/11/18 11:24:44;;;;;;;10.18;4.60;;;;;;;9.67;87.65;100109.28;5093020;28;20444;-71
2022/11/18 11:27:27;;;;;;;12.50;4.18;;;;;;;9.75;88.10;100109.56;5091748;28;20055;-63
2022/11/18 11:30:17;;;;;;;7.72;4.63;;;;;;;9.81;88.63;100110.09;5092182;28;20024;-60
2022/11/18 11:33:14;;;;;;;12.15;5.03;;;;;;;9.85;87.93;100112.41;5093308;28;20031;-60
2022/11/18 11:36:15;;;;;;;9.82;4.63;;;;;;;9.74;87.13;100110.53;5091399;28;20407;-60
2022/11/18 11:38:49;;;;;;;9.07;4.85;;;;;;;9.68;87.29;100115.47;5090526;28;20493;-60
2022/11/18 11:41:23;;;;;;;8.25;5.03;;;;;;;9.62;87.78;100118.50;5128706;27;20024;-60
2022/11/18 11:44:19;;;;;;;9.57;4.97;;;;;;;9.62;87.74;100115.88;5091013;28;20047;-60
2022/11/18 11:50:17;;;;;;;9.93;4.75;;;;;;;9.63;87.72;100117.56;5081550;28;20127;-60
2022/11/18 11:53:01;;;;;;;14.35;5.15;;;;;;;9.64;88.03;100124.56;5098553;28;20028;-60
2022/11/18 11:55:32;;;;;;;10.32;4.30;;;;;;;9.65;88.31;100116.53;5103554;28;20024;-60
2022/11/18 11:58:10;;;;;;;7.70;4.10;;;;;;;9.75;88.23;100129.97;5089306;28;20162;-60
2022/11/18 12:00:42;;;;;;;9.80;5.80;;;;;;;9.80;87.37;100134.97;5092017;28;20024;-60
2022/11/18 12:03:17;;;;;;;11.00;5.15;;;;;;;9.76;87.34;100121.03;5093560;28;20032;-60
2022/11/18 12:05:43;;;;;;;8.43;4.30;;;;;;;9.86;87.09;100124.75;5094959;28;20089;-60